sensor_id;sensor_type;location;lat;lon;timestamp;pressure;altitude;pressure_sealevel;temperature;humidity
32330;BME280;18807;52.434;13.238;2023-04-26T00:01:50;76988.16;;;-142.05;64.50
32330;BME280;18807;52.434;13.238;2023-04-26T00:09:26;76996.34;;;-142.05;64.92
32330;BME280;18807;52.434;13.238;2023-04-26T00:17:00;77012.66;;;-142.05;65.63
32330;BME280;18807;52.434;13.238;2023-04-26T00:24:37;77020.84;;;-142.05;66.26
32330;BME280;18807;52.434;13.238;2023-04-26T00:32:11;77035.13;;;-142.05;67.00
32330;BME280;18807;52.434;13.238;2023-04-26T00:39:46;77031.03;;;-142.05;67.32
32330;BME280;18807;52.434;13.238;2023-04-26T00:47:20;77059.63;;;-142.05;68.58
32330;BME280;18807;52.434;13.238;2023-04-26T00:54:56;77065.75;;;-142.05;68.91
32330;BME280;18807;52.434;13.238;2023-04-26T01:02:30;77057.56;;;-142.05;69.06
32330;BME280;18807;52.434;13.238;2023-04-26T01:10:06;77073.91;;;-142.05;69.64
32330;BME280;18807;52.434;13.238;2023-04-26T01:17:45;77088.19;;;-142.05;70.24
32330;BME280;18807;52.434;13.238;2023-04-26T01:25:23;77100.44;;;-142.05;71.29
32330;BME280;18807;52.434;13.238;2023-04-26T01:32:57;77120.88;;;-142.05;72.73
32330;BME280;18807;52.434;13.238;2023-04-26T01:40:32;77131.06;;;-142.05;73.76
32330;BME280;18807;52.434;13.238;2023-04-26T01:48:06;77145.38;;;-142.05;74.58
32330;BME280;18807;52.434;13.238;2023-04-26T01:55:42;77151.50;;;-142.05;75.39
32330;BME280;18807;52.434;13.238;2023-04-26T02:03:16;77165.78;;;-142.05;76.42
32330;BME280;18807;52.434;13.238;2023-04-26T02:10:51;77165.78;;;-142.05;76.60
32330;BME280;18807;52.434;13.238;2023-04-26T02:18:25;77175.97;;;-142.05;78.09
32330;BME280;18807;52.434;13.238;2023-04-26T02:26:03;77178.03;;;-142.05;78.52
32330;BME280;18807;52.434;13.238;2023-04-26T02:33:37;77182.09;;;-142.05;78.84
32330;BME280;18807;52.434;13.238;2023-04-26T02:41:12;77186.19;;;-142.05;79.10
32330;BME280;18807;52.434;13.238;2023-04-26T02:48:46;77202.53;;;-142.05;81.59
32330;BME280;18807;52.434;13.238;2023-04-26T02:56:22;77204.56;;;-142.05;80.81
32330;BME280;18807;52.434;13.238;2023-04-26T03:03:56;77214.78;;;-142.05;83.43
32330;BME280;18807;52.434;13.238;2023-04-26T03:11:31;77225.00;;;-142.05;84.94
32330;BME280;18807;52.434;13.238;2023-04-26T03:19:06;77237.25;;;-142.05;85.70
32330;BME280;18807;52.434;13.238;2023-04-26T03:26:41;77241.31;;;-142.05;86.15
32330;BME280;18807;52.434;13.238;2023-04-26T03:34:15;77243.38;;;-142.05;86.49
32330;BME280;18807;52.434;13.238;2023-04-26T03:41:50;77253.56;;;-142.05;86.53
32330;BME280;18807;52.434;13.238;2023-04-26T03:49:42;77257.66;;;-142.05;86.71
32330;BME280;18807;52.434;13.238;2023-04-26T03:57:17;77261.72;;;-142.05;87.21
32330;BME280;18807;52.434;13.238;2023-04-26T04:04:51;77263.78;;;-142.05;87.71
32330;BME280;18807;52.434;13.238;2023-04-26T04:12:27;77269.91;;;-142.05;88.28
32330;BME280;18807;52.434;13.238;2023-04-26T04:20:01;77276.03;;;-142.05;89.49
32330;BME280;18807;52.434;13.238;2023-04-26T04:27:38;77267.84;;;-142.05;88.92
32330;BME280;18807;52.434;13.238;2023-04-26T04:35:14;77267.84;;;-142.05;87.55
32330;BME280;18807;52.434;13.238;2023-04-26T04:42:50;77269.91;;;-142.05;88.47
32330;BME280;18807;52.434;13.238;2023-04-26T04:50:24;77265.81;;;-142.05;87.62
32330;BME280;18807;52.434;13.238;2023-04-26T04:58:01;77259.69;;;-142.05;86.54
32330;BME280;18807;52.434;13.238;2023-04-26T05:05:35;77255.59;;;-142.05;85.33
32330;BME280;18807;52.434;13.238;2023-04-26T05:13:11;77253.56;;;-142.05;84.77
32330;BME280;18807;52.434;13.238;2023-04-26T05:20:45;77237.25;;;-142.05;85.06
32330;BME280;18807;52.434;13.238;2023-04-26T05:28:20;77216.81;;;-142.05;83.50
32330;BME280;18807;52.434;13.238;2023-04-26T05:35:54;77214.78;;;-142.05;81.18
32330;BME280;18807;52.434;13.238;2023-04-26T05:43:48;77204.56;;;-142.05;80.29
32330;BME280;18807;52.434;13.238;2023-04-26T05:51:23;77184.16;;;-142.05;79.99
32330;BME280;18807;52.434;13.238;2023-04-26T05:58:58;77186.19;;;-142.05;77.73
32330;BME280;18807;52.434;13.238;2023-04-26T06:06:32;77182.09;;;-142.05;77.06
32330;BME280;18807;52.434;13.238;2023-04-26T06:14:07;77159.66;;;-142.05;76.05
32330;BME280;18807;52.434;13.238;2023-04-26T06:21:54;77141.28;;;-142.05;74.76
32330;BME280;18807;52.434;13.238;2023-04-26T06:29:31;77129.03;;;-142.05;73.35
32330;BME280;18807;52.434;13.238;2023-04-26T06:37:06;77108.63;;;-142.05;72.72
32330;BME280;18807;52.434;13.238;2023-04-26T06:44:42;77100.44;;;-142.05;72.25
32330;BME280;18807;52.434;13.238;2023-04-26T06:52:16;77055.53;;;-142.05;71.05
32330;BME280;18807;52.434;13.238;2023-04-26T06:59:53;77018.78;;;-142.05;69.70
32330;BME280;18807;52.434;13.238;2023-04-26T07:07:28;77006.53;;;-142.05;66.87
32330;BME280;18807;52.434;13.238;2023-04-26T07:15:05;76977.97;;;-142.05;66.43
32330;BME280;18807;52.434;13.238;2023-04-26T07:22:40;76982.03;;;-142.05;65.67
32330;BME280;18807;52.434;13.238;2023-04-26T07:30:15;76967.75;;;-142.05;63.79
32330;BME280;18807;52.434;13.238;2023-04-26T07:37:50;76947.34;;;-142.05;61.85
32330;BME280;18807;52.434;13.238;2023-04-26T07:45:26;76924.88;;;-142.05;61.58
32330;BME280;18807;52.434;13.238;2023-04-26T07:53:00;76916.72;;;-142.05;60.92
32330;BME280;18807;52.434;13.238;2023-04-26T08:00:35;76886.09;;;-142.05;60.08
32330;BME280;18807;52.434;13.238;2023-04-26T08:08:10;76900.38;;;-142.05;59.20
32330;BME280;18807;52.434;13.238;2023-04-26T08:15:46;76894.25;;;-142.05;59.02
32330;BME280;18807;52.434;13.238;2023-04-26T08:23:20;76882.00;;;-142.05;59.18
32330;BME280;18807;52.434;13.238;2023-04-26T08:30:55;76859.56;;;-142.05;57.12
32330;BME280;18807;52.434;13.238;2023-04-26T08:38:30;76830.97;;;-142.05;55.28
32330;BME280;18807;52.434;13.238;2023-04-26T08:46:09;76767.69;;;-142.05;55.87
32330;BME280;18807;52.434;13.238;2023-04-26T08:53:44;76737.06;;;-142.05;53.12
32330;BME280;18807;52.434;13.238;2023-04-26T09:01:19;76755.44;;;-142.05;52.62
32330;BME280;18807;52.434;13.238;2023-04-26T09:08:55;76749.31;;;-142.05;53.65
32330;BME280;18807;52.434;13.238;2023-04-26T09:16:37;76743.19;;;-142.05;51.67
32330;BME280;18807;52.434;13.238;2023-04-26T09:24:12;76704.41;;;-142.05;52.50
32330;BME280;18807;52.434;13.238;2023-04-26T09:31:48;76702.38;;;-142.05;51.42
32330;BME280;18807;52.434;13.238;2023-04-26T09:39:33;76751.38;;;-142.05;49.70
32330;BME280;18807;52.434;13.238;2023-04-26T09:47:09;76737.06;;;-142.05;48.97
32330;BME280;18807;52.434;13.238;2023-04-26T09:54:46;76730.94;;;-142.05;49.57
32330;BME280;18807;52.434;13.238;2023-04-26T10:02:23;76718.69;;;-142.05;47.78
32330;BME280;18807;52.434;13.238;2023-04-26T10:09:58;76696.25;;;-142.05;44.67
32330;BME280;18807;52.434;13.238;2023-04-26T10:17:33;76686.03;;;-142.05;44.43
32330;BME280;18807;52.434;13.238;2023-04-26T10:25:08;76671.75;;;-142.05;43.99
32330;BME280;18807;52.434;13.238;2023-04-26T10:40:36;76626.84;;;-142.05;42.36
32330;BME280;18807;52.434;13.238;2023-04-26T10:48:15;76635.00;;;-142.05;42.25
32330;BME280;18807;52.434;13.238;2023-04-26T10:55:52;76655.41;;;-142.05;42.26
32330;BME280;18807;52.434;13.238;2023-04-26T11:03:29;76706.44;;;-142.05;45.13
32330;BME280;18807;52.434;13.238;2023-04-26T11:11:24;76696.25;;;-142.05;46.13
32330;BME280;18807;52.434;13.238;2023-04-26T11:19:01;76692.16;;;-142.05;45.83
32330;BME280;18807;52.434;13.238;2023-04-26T11:26:36;76653.38;;;-142.05;45.04
32330;BME280;18807;52.434;13.238;2023-04-26T11:34:10;76665.63;;;-142.05;43.88
32330;BME280;18807;52.434;13.238;2023-04-26T11:41:46;76677.88;;;-142.05;43.15
32330;BME280;18807;52.434;13.238;2023-04-26T11:49:20;76694.22;;;-142.05;43.45
32330;BME280;18807;52.434;13.238;2023-04-26T11:56:56;76665.63;;;-142.05;44.23
32330;BME280;18807;52.434;13.238;2023-04-26T12:04:31;76618.69;;;-142.05;43.51
32330;BME280;18807;52.434;13.238;2023-04-26T12:12:07;76588.06;;;-142.05;40.49
32330;BME280;18807;52.434;13.238;2023-04-26T12:19:42;76616.63;;;-142.05;41.42
32330;BME280;18807;52.434;13.238;2023-04-26T12:27:20;76653.38;;;-142.05;40.22
32330;BME280;18807;52.434;13.238;2023-04-26T12:34:54;76604.38;;;-142.05;40.34
32330;BME280;18807;52.434;13.238;2023-04-26T12:42:29;76532.94;;;-142.05;39.91
32330;BME280;18807;52.434;13.238;2023-04-26T12:50:04;76543.16;;;-142.05;40.18
32330;BME280;18807;52.434;13.238;2023-04-26T12:57:41;76530.91;;;-142.05;40.65
32330;BME280;18807;52.434;13.238;2023-04-26T13:05:15;76481.91;;;-142.05;41.25
32330;BME280;18807;52.434;13.238;2023-04-26T13:12:50;76475.78;;;-142.05;40.54
32330;BME280;18807;52.434;13.238;2023-04-26T13:20:25;76486.00;;;-142.05;41.19
32330;BME280;18807;52.434;13.238;2023-04-26T13:28:04;76469.66;;;-142.05;40.99
32330;BME280;18807;52.434;13.238;2023-04-26T13:35:38;76494.16;;;-142.05;40.21
32330;BME280;18807;52.434;13.238;2023-04-26T13:43:13;76516.63;;;-142.05;39.16
32330;BME280;18807;52.434;13.238;2023-04-26T13:50:47;76537.03;;;-142.05;38.57
32330;BME280;18807;52.434;13.238;2023-04-26T13:58:22;76563.56;;;-142.05;39.62
32330;BME280;18807;52.434;13.238;2023-04-26T14:05:56;76518.66;;;-142.05;40.41
32330;BME280;18807;52.434;13.238;2023-04-26T14:13:32;76539.06;;;-142.05;39.96
32330;BME280;18807;52.434;13.238;2023-04-26T14:21:06;76518.66;;;-142.05;40.24
32330;BME280;18807;52.434;13.238;2023-04-26T14:28:41;76453.34;;;-142.05;39.22
32330;BME280;18807;52.434;13.238;2023-04-26T14:36:15;76408.44;;;-142.05;38.90
32330;BME280;18807;52.434;13.238;2023-04-26T14:43:50;76418.66;;;-142.05;38.86
32330;BME280;18807;52.434;13.238;2023-04-26T14:51:24;76424.75;;;-142.05;38.49
32330;BME280;18807;52.434;13.238;2023-04-26T14:59:00;76398.22;;;-142.05;38.41
32330;BME280;18807;52.434;13.238;2023-04-26T15:06:35;76424.75;;;-142.05;39.05
32330;BME280;18807;52.434;13.238;2023-04-26T15:14:11;76445.19;;;-142.05;38.31
32330;BME280;18807;52.434;13.238;2023-04-26T15:21:46;76420.69;;;-142.05;37.60
32330;BME280;18807;52.434;13.238;2023-04-26T15:29:25;76406.41;;;-142.05;38.00
32330;BME280;18807;52.434;13.238;2023-04-26T15:36:59;76341.09;;;-142.05;37.55
32330;BME280;18807;52.434;13.238;2023-04-26T15:44:34;76339.03;;;-142.05;37.62
32330;BME280;18807;52.434;13.238;2023-04-26T15:52:08;76404.34;;;-142.05;36.92
32330;BME280;18807;52.434;13.238;2023-04-26T15:59:43;76481.91;;;-142.05;37.61
32330;BME280;18807;52.434;13.238;2023-04-26T16:07:18;76445.19;;;-142.05;37.90
32330;BME280;18807;52.434;13.238;2023-04-26T16:14:53;76426.81;;;-142.05;38.47
32330;BME280;18807;52.434;13.238;2023-04-26T16:22:27;76479.88;;;-142.05;39.29
32330;BME280;18807;52.434;13.238;2023-04-26T16:30:04;76516.63;;;-142.05;40.26
32330;BME280;18807;52.434;13.238;2023-04-26T16:37:38;76467.63;;;-142.05;39.60
32330;BME280;18807;52.434;13.238;2023-04-26T16:45:14;76432.94;;;-142.05;39.88
32330;BME280;18807;52.434;13.238;2023-04-26T16:52:48;76461.50;;;-142.05;40.85
32330;BME280;18807;52.434;13.238;2023-04-26T17:00:24;76502.34;;;-142.05;40.08
32330;BME280;18807;52.434;13.238;2023-04-26T17:07:57;76547.25;;;-142.05;39.86
32330;BME280;18807;52.434;13.238;2023-04-26T17:15:33;76553.34;;;-142.05;39.86
32330;BME280;18807;52.434;13.238;2023-04-26T17:23:07;76579.91;;;-142.05;40.03
32330;BME280;18807;52.434;13.238;2023-04-26T17:30:43;76596.22;;;-142.05;40.54
32330;BME280;18807;52.434;13.238;2023-04-26T17:38:16;76612.56;;;-142.05;41.61
32330;BME280;18807;52.434;13.238;2023-04-26T17:45:52;76637.06;;;-142.05;42.06
32330;BME280;18807;52.434;13.238;2023-04-26T17:53:26;76651.34;;;-142.05;43.03
32330;BME280;18807;52.434;13.238;2023-04-26T18:01:01;76665.63;;;-142.05;43.50
32330;BME280;18807;52.434;13.238;2023-04-26T18:08:35;76669.72;;;-142.05;43.98
32330;BME280;18807;52.434;13.238;2023-04-26T18:16:10;76696.25;;;-142.05;44.70
32330;BME280;18807;52.434;13.238;2023-04-26T18:23:46;76706.44;;;-142.05;45.35
32330;BME280;18807;52.434;13.238;2023-04-26T18:31:21;76722.78;;;-142.05;45.95
32330;BME280;18807;52.434;13.238;2023-04-26T18:38:58;76730.94;;;-142.05;46.84
32330;BME280;18807;52.434;13.238;2023-04-26T18:46:34;76751.38;;;-142.05;47.39
32330;BME280;18807;52.434;13.238;2023-04-26T18:54:08;76759.53;;;-142.05;47.62
32330;BME280;18807;52.434;13.238;2023-04-26T19:01:44;76779.94;;;-142.05;48.08
32330;BME280;18807;52.434;13.238;2023-04-26T19:09:18;76794.22;;;-142.05;48.99
32330;BME280;18807;52.434;13.238;2023-04-26T19:16:54;76808.53;;;-142.05;49.04
32330;BME280;18807;52.434;13.238;2023-04-26T19:24:31;76820.78;;;-142.05;49.18
32330;BME280;18807;52.434;13.238;2023-04-26T19:32:06;76820.78;;;-142.05;49.50
32330;BME280;18807;52.434;13.238;2023-04-26T19:39:40;76833.00;;;-142.05;49.67
32330;BME280;18807;52.434;13.238;2023-04-26T19:47:15;76830.97;;;-142.05;49.88
32330;BME280;18807;52.434;13.238;2023-04-26T19:54:51;76841.19;;;-142.05;49.68
32330;BME280;18807;52.434;13.238;2023-04-26T20:02:27;76845.28;;;-142.05;50.07
32330;BME280;18807;52.434;13.238;2023-04-26T20:10:01;76841.19;;;-142.05;50.29
32330;BME280;18807;52.434;13.238;2023-04-26T20:17:36;76845.28;;;-142.05;51.18
32330;BME280;18807;52.434;13.238;2023-04-26T20:25:11;76857.50;;;-142.05;51.92
32330;BME280;18807;52.434;13.238;2023-04-26T20:32:46;76859.56;;;-142.05;52.54
32330;BME280;18807;52.434;13.238;2023-04-26T20:40:20;76863.63;;;-142.05;53.15
32330;BME280;18807;52.434;13.238;2023-04-26T20:47:56;76871.81;;;-142.05;53.06
32330;BME280;18807;52.434;13.238;2023-04-26T20:55:30;76879.97;;;-142.05;53.46
32330;BME280;18807;52.434;13.238;2023-04-26T21:03:05;76892.22;;;-142.05;53.67
32330;BME280;18807;52.434;13.238;2023-04-26T21:10:39;76894.25;;;-142.05;53.91
32330;BME280;18807;52.434;13.238;2023-04-26T21:18:15;76916.72;;;-142.05;54.10
32330;BME280;18807;52.434;13.238;2023-04-26T21:25:49;76922.84;;;-142.05;54.41
32330;BME280;18807;52.434;13.238;2023-04-26T21:33:25;76939.16;;;-142.05;54.09
32330;BME280;18807;52.434;13.238;2023-04-26T21:40:59;76951.41;;;-142.05;54.16
32330;BME280;18807;52.434;13.238;2023-04-26T21:48:34;76947.34;;;-142.05;53.85
32330;BME280;18807;52.434;13.238;2023-04-26T21:56:10;76953.47;;;-142.05;54.55
32330;BME280;18807;52.434;13.238;2023-04-26T22:03:47;76947.34;;;-142.05;54.73
32330;BME280;18807;52.434;13.238;2023-04-26T22:11:21;76975.91;;;-142.05;55.08
32330;BME280;18807;52.434;13.238;2023-04-26T22:18:56;76992.25;;;-142.05;54.76
32330;BME280;18807;52.434;13.238;2023-04-26T22:26:30;77006.53;;;-142.05;54.78
32330;BME280;18807;52.434;13.238;2023-04-26T22:34:06;77020.84;;;-142.05;54.87
32330;BME280;18807;52.434;13.238;2023-04-26T22:41:41;77024.91;;;-142.05;55.02
32330;BME280;18807;52.434;13.238;2023-04-26T22:49:16;77037.16;;;-142.05;55.43
32330;BME280;18807;52.434;13.238;2023-04-26T22:56:50;77037.16;;;-142.05;55.62
32330;BME280;18807;52.434;13.238;2023-04-26T23:04:25;77049.41;;;-142.05;55.75
32330;BME280;18807;52.434;13.238;2023-04-26T23:11:59;77043.28;;;-142.05;55.78
32330;BME280;18807;52.434;13.238;2023-04-26T23:19:35;77055.53;;;-142.05;55.95
32330;BME280;18807;52.434;13.238;2023-04-26T23:27:09;77057.56;;;-142.05;56.46
32330;BME280;18807;52.434;13.238;2023-04-26T23:34:44;77067.78;;;-142.05;56.60
32330;BME280;18807;52.434;13.238;2023-04-26T23:42:18;77057.56;;;-142.05;56.78
32330;BME280;18807;52.434;13.238;2023-04-26T23:49:54;77069.81;;;-142.05;56.76
32330;BME280;18807;52.434;13.238;2023-04-26T23:57:28;77069.81;;;-142.05;56.82
